Time;durP1;ratioP1;P1;durP2;ratioP2;P2;SDS_P1;SDS_P2;PMS_P1;PMS_P2;Temp;Humidity;BMP_temperature;BMP_pressure;BME280_temperature;BME280_humidity;BME280_pressure;Samples;Min_cycle;Max_cycle;Signal;HPM_P1;HPM_P2
2022/01/05 00:01:07;;;;;;;0.40;0.40;;;3.70;99.90;;;;;;5094683;28;20199;-75
2022/01/05 00:03:34;;;;;;;0.38;0.38;;;3.60;99.90;;;;;;5094685;28;20278;-75
2022/01/05 06:13:43;;;;;;;0.50;0.50;;;2.50;99.90;;;;;;5353686;22;20311;-73
2022/01/05 06:16:10;;;;;;;0.50;0.50;;;2.50;99.90;;;;;;5076292;28;20280;-73
2022/01/05 06:18:36;;;;;;;0.50;0.50;;;2.50;99.90;;;;;;5076521;28;20295;-73
2022/01/05 06:21:03;;;;;;;0.50;0.50;;;2.50;99.90;;;;;;5076457;28;20212;-73
2022/01/05 06:23:30;;;;;;;0.60;0.60;;;2.50;99.90;;;;;;5076003;28;20218;-73
2022/01/05 06:25:57;;;;;;;0.60;0.60;;;2.50;99.90;;;;;;5076377;28;20227;-73
2022/01/05 06:28:24;;;;;;;0.77;0.77;;;2.50;99.90;;;;;;5118092;22;20251;-69
2022/01/05 06:30:52;;;;;;;0.50;0.50;;;2.50;99.90;;;;;;5096568;28;20205;-69
2022/01/05 06:33:19;;;;;;;0.90;0.70;;;2.50;99.90;;;;;;5096677;28;20219;-69
2022/01/05 06:35:46;;;;;;;0.60;0.60;;;2.50;99.90;;;;;;5097020;28;20286;-69
2022/01/05 06:38:13;;;;;;;0.70;0.70;;;2.50;99.90;;;;;;5096340;28;20219;-69
2022/01/05 06:40:40;;;;;;;0.60;0.60;;;2.50;99.90;;;;;;5096416;28;20294;-69
2022/01/05 06:43:07;;;;;;;0.50;0.50;;;2.60;99.90;;;;;;5096109;28;20666;-69
2022/01/05 06:45:35;;;;;;;0.60;0.60;;;2.60;99.90;;;;;;5096116;28;20682;-69
2022/01/05 06:48:04;;;;;;;0.60;0.60;;;2.50;99.90;;;;;;5096433;28;20592;-69
2022/01/05 06:50:31;;;;;;;0.60;0.60;;;2.60;99.90;;;;;;5096704;28;20199;-69
2022/01/05 06:52:58;;;;;;;0.80;0.80;;;2.50;99.90;;;;;;5096161;28;20292;-69
2022/01/05 06:55:25;;;;;;;0.90;0.90;;;2.50;99.90;;;;;;5096298;28;20203;-69
2022/01/05 06:57:52;;;;;;;0.70;0.70;;;2.50;99.90;;;;;;5096598;28;20306;-69
2022/01/05 07:00:21;;;;;;;0.60;0.60;;;2.50;99.90;;;;;;5095118;28;20290;-69
2022/01/05 07:02:48;;;;;;;0.63;0.60;;;2.40;99.90;;;;;;5096021;28;20210;-69
2022/01/05 07:05:16;;;;;;;0.70;0.70;;;2.40;99.90;;;;;;5095916;28;20199;-69
2022/01/05 07:07:43;;;;;;;0.50;0.50;;;2.30;99.90;;;;;;5095501;28;20728;-69
2022/01/05 07:10:11;;;;;;;0.60;0.60;;;2.30;99.90;;;;;;5095892;28;20282;-69
2022/01/05 07:12:39;;;;;;;0.57;0.57;;;2.30;99.90;;;;;;5095722;28;20231;-69
2022/01/05 07:15:07;;;;;;;0.50;0.50;;;2.30;99.90;;;;;;5095769;28;20229;-69
2022/01/05 07:17:35;;;;;;;0.50;0.50;;;2.30;99.90;;;;;;5095545;28;20311;-69
2022/01/05 07:20:02;;;;;;;0.60;0.60;;;2.30;99.90;;;;;;5095380;28;20205;-69
2022/01/05 07:22:30;;;;;;;0.70;0.70;;;2.20;99.90;;;;;;5095580;28;20286;-69
2022/01/05 07:24:57;;;;;;;0.80;0.80;;;2.20;99.90;;;;;;5095452;28;20200;-69
2022/01/05 07:27:24;;;;;;;0.65;0.65;;;2.20;99.90;;;;;;5094961;28;20716;-68
2022/01/05 07:29:51;;;;;;;0.70;0.70;;;2.30;99.90;;;;;;5095432;28;20195;-68
2022/01/05 07:32:18;;;;;;;0.70;0.70;;;2.40;99.90;;;;;;5095384;28;20203;-68
2022/01/05 07:34:45;;;;;;;0.57;0.57;;;2.40;99.90;;;;;;5095316;28;20223;-68
2022/01/05 07:37:12;;;;;;;0.65;0.65;;;2.40;99.90;;;;;;5095529;28;20306;-68
2022/01/05 07:39:40;;;;;;;0.68;0.68;;;2.50;99.90;;;;;;5095270;28;20250;-69
2022/01/05 07:42:08;;;;;;;0.63;0.63;;;2.50;99.90;;;;;;5095212;28;20195;-69
2022/01/05 07:44:35;;;;;;;0.70;0.70;;;2.50;99.90;;;;;;5095127;28;20227;-69
2022/01/05 07:47:02;;;;;;;0.73;0.73;;;2.50;99.90;;;;;;5095066;28;20254;-69
2022/01/05 07:49:29;;;;;;;0.68;0.68;;;2.50;99.90;;;;;;5095128;28;20294;-69
2022/01/05 07:51:56;;;;;;;1.25;0.70;;;2.50;99.90;;;;;;5094749;28;20585;-69
2022/01/05 07:54:23;;;;;;;0.85;0.85;;;2.40;99.90;;;;;;5094634;28;20226;-68
2022/01/05 07:56:51;;;;;;;0.73;0.73;;;2.30;99.90;;;;;;5094840;28;20309;-68
2022/01/05 07:59:18;;;;;;;1.55;0.63;;;2.20;99.90;;;;;;5094570;28;20206;-68
2022/01/05 08:01:45;;;;;;;0.70;0.70;;;2.10;99.90;;;;;;5094645;28;20223;-68
2022/01/05 08:04:14;;;;;;;0.80;0.80;;;2.00;99.90;;;;;;5094409;28;20563;-68
2022/01/05 08:06:41;;;;;;;0.50;0.50;;;2.00;99.90;;;;;;5094662;28;20230;-68
2022/01/05 08:09:08;;;;;;;0.80;0.80;;;1.90;99.90;;;;;;5094717;28;20203;-68
2022/01/05 08:11:34;;;;;;;0.60;0.60;;;1.90;99.90;;;;;;5094447;28;20230;-68
2022/01/05 08:14:03;;;;;;;0.80;0.80;;;1.80;99.90;;;;;;5094260;28;20302;-68
2022/01/05 08:16:30;;;;;;;0.77;0.77;;;1.70;99.90;;;;;;5094511;28;20294;-68
2022/01/05 08:18:57;;;;;;;0.80;0.80;;;1.60;99.90;;;;;;5094552;28;20291;-69
2022/01/05 08:21:23;;;;;;;1.70;0.80;;;1.60;99.90;;;;;;5094407;28;20306;-69
2022/01/05 08:23:51;;;;;;;0.80;0.80;;;1.50;99.90;;;;;;5094527;28;20272;-68
2022/01/05 08:26:18;;;;;;;0.70;0.70;;;1.40;99.90;;;;;;5094358;28;20210;-68
2022/01/05 08:28:45;;;;;;;0.63;0.63;;;1.30;99.90;;;;;;5094067;28;20666;-68
2022/01/05 08:31:13;;;;;;;0.80;0.80;;;1.30;99.90;;;;;;5094063;28;20278;-68
2022/01/05 08:33:40;;;;;;;0.80;0.80;;;1.20;99.90;;;;;;5094297;28;20249;-69
2022/01/05 08:36:07;;;;;;;1.45;0.82;;;1.20;99.90;;;;;;5094374;28;20230;-68
2022/01/05 08:38:35;;;;;;;1.55;1.00;;;1.20;99.90;;;;;;5094177;28;20247;-68
2022/01/05 08:41:02;;;;;;;0.90;0.90;;;1.20;99.90;;;;;;5094142;28;20286;-68
2022/01/05 08:43:29;;;;;;;1.00;0.88;;;1.20;99.90;;;;;;5094169;28;20187;-68
2022/01/05 08:45:56;;;;;;;0.70;0.70;;;1.20;99.90;;;;;;5094125;28;20218;-68
2022/01/05 08:48:24;;;;;;;0.80;0.80;;;1.20;99.90;;;;;;5094053;28;20307;-68
2022/01/05 08:50:51;;;;;;;1.02;1.02;;;1.20;99.90;;;;;;5094254;28;20282;-68
2022/01/05 08:53:19;;;;;;;0.70;0.70;;;1.30;99.90;;;;;;5093634;28;20199;-68
2022/01/05 08:55:48;;;;;;;0.98;0.98;;;1.50;99.90;;;;;;5093679;28;20204;-68
2022/01/05 08:58:18;;;;;;;0.80;0.77;;;1.60;99.90;;;;;;5093694;28;20305;-68
2022/01/05 09:00:45;;;;;;;1.40;1.35;;;1.60;99.90;;;;;;5093666;28;20289;-68
2022/01/05 09:03:14;;;;;;;1.48;1.00;;;1.50;99.90;;;;;;5093893;28;20285;-68
2022/01/05 09:05:43;;;;;;;0.68;0.68;;;1.60;99.90;;;;;;5093921;28;20290;-69
2022/01/05 09:08:10;;;;;;;0.90;0.90;;;1.70;99.90;;;;;;5094001;28;20306;-69
2022/01/05 09:10:37;;;;;;;1.00;1.00;;;1.70;99.90;;;;;;5094769;28;20628;-69
2022/01/05 09:13:05;;;;;;;1.13;1.13;;;1.80;99.90;;;;;;5094566;28;20294;-68
2022/01/05 09:15:34;;;;;;;1.73;1.08;;;1.80;99.90;;;;;;5094178;28;20223;-69
2022/01/05 09:18:01;;;;;;;1.98;1.20;;;1.80;99.90;;;;;;5093775;28;20223;-68
2022/01/05 09:20:28;;;;;;;1.10;1.10;;;1.70;99.90;;;;;;5093516;28;20655;-68
2022/01/05 09:22:56;;;;;;;1.70;1.02;;;1.60;99.90;;;;;;5093865;28;20201;-68
2022/01/05 09:25:24;;;;;;;1.55;1.10;;;1.50;99.90;;;;;;5093702;28;20289;-68
2022/01/05 09:27:52;;;;;;;1.00;1.00;;;1.50;99.90;;;;;;5093394;28;20237;-68
2022/01/05 09:30:20;;;;;;;1.65;1.10;;;1.50;99.90;;;;;;5093613;28;20196;-68
2022/01/05 09:32:47;;;;;;;2.25;0.90;;;1.50;99.90;;;;;;5093699;28;20183;-68
2022/01/05 09:35:16;;;;;;;1.30;0.85;;;1.40;99.90;;;;;;5093345;28;20255;-68
2022/01/05 09:37:53;;;;;;;1.33;1.20;;;1.40;99.90;;;;;;5093532;28;20272;-68
2022/01/05 09:43:07;;;;;;;0.93;0.93;;;1.40;99.90;;;;;;5093496;28;20236;-68
2022/01/05 09:45:37;;;;;;;1.25;1.15;;;1.50;99.90;;;;;;5093242;28;20262;-68
2022/01/05 09:48:29;;;;;;;0.70;0.70;;;1.40;99.90;;;;;;5093685;28;20261;-69
2022/01/05 09:50:59;;;;;;;1.02;1.02;;;1.50;99.90;;;;;;5093343;28;20631;-69
2022/01/05 09:53:26;;;;;;;1.77;0.90;;;1.50;99.90;;;;;;5093620;28;20234;-68
2022/01/05 09:55:55;;;;;;;0.80;0.80;;;1.50;99.90;;;;;;5093097;28;20302;-68
2022/01/05 09:58:24;;;;;;;0.90;0.90;;;1.50;99.90;;;;;;5093304;28;20310;-69
2022/01/05 10:00:52;;;;;;;0.85;0.82;;;1.40;99.90;;;;;;5093339;28;20279;-69
2022/01/05 10:03:20;;;;;;;1.13;1.00;;;1.40;99.90;;;;;;5092948;28;20639;-68
2022/01/05 10:05:47;;;;;;;0.90;0.90;;;1.40;99.90;;;;;;5093358;28;20234;-68
2022/01/05 10:08:14;;;;;;;1.60;0.90;;;1.40;99.90;;;;;;5093374;28;20255;-69
2022/01/05 10:10:42;;;;;;;1.00;0.90;;;1.40;99.90;;;;;;5093297;28;20276;-69
2022/01/05 10:13:10;;;;;;;0.98;0.98;;;1.30;99.90;;;;;;5093404;28;20191;-69
2022/01/05 10:15:37;;;;;;;0.98;0.98;;;1.30;99.90;;;;;;5092928;28;20199;-69
2022/01/05 10:18:14;;;;;;;1.05;0.90;;;1.30;99.90;;;;;;5092927;28;20733;-70
2022/01/05 10:20:58;;;;;;;0.95;0.95;;;1.40;99.90;;;;;;5093071;28;20636;-69
2022/01/05 10:23:36;;;;;;;1.25;1.15;;;1.40;99.90;;;;;;5092994;28;20673;-69
2022/01/05 10:26:23;;;;;;;1.75;1.10;;;1.40;99.90;;;;;;5092952;28;20226;-69
2022/01/05 10:28:53;;;;;;;1.17;1.00;;;1.40;99.90;;;;;;5093019;28;20198;-69
2022/01/05 10:31:21;;;;;;;1.02;1.02;;;1.40;99.90;;;;;;5092917;28;20210;-69
2022/01/05 10:33:49;;;;;;;1.60;1.25;;;1.50;99.90;;;;;;5092931;28;20194;-69
2022/01/05 10:36:16;;;;;;;1.88;1.40;;;1.50;99.90;;;;;;5095576;28;20294;-69
2022/01/05 10:38:55;;;;;;;1.35;1.15;;;1.40;99.90;;;;;;5096475;28;20209;-70
2022/01/05 10:41:25;;;;;;;1.70;1.15;;;1.40;99.90;;;;;;5097010;28;20278;-70
2022/01/05 10:44:19;;;;;;;2.05;1.15;;;1.40;99.90;;;;;;5097740;28;20270;-69
2022/01/05 10:46:48;;;;;;;2.58;1.10;;;1.50;99.90;;;;;;5096934;28;20255;-70
2022/01/05 10:49:27;;;;;;;0.88;0.88;;;1.50;99.90;;;;;;5096967;28;20237;-69
2022/01/05 10:51:54;;;;;;;1.88;1.23;;;1.60;99.90;;;;;;5096534;28;20282;-70
2022/01/05 10:54:22;;;;;;;1.52;1.33;;;1.70;99.90;;;;;;5096275;28;20306;-69
2022/01/05 10:56:50;;;;;;;1.63;1.48;;;1.70;99.90;;;;;;5096264;28;20333;-69
2022/01/05 10:59:28;;;;;;;1.08;1.02;;;1.70;99.90;;;;;;5095839;28;20674;-69
2022/01/05 11:01:55;;;;;;;3.20;1.30;;;1.70;99.90;;;;;;5096202;28;20184;-71
2022/01/05 11:04:24;;;;;;;1.20;1.15;;;1.90;99.90;;;;;;5095826;28;20199;-70
2022/01/05 11:07:03;;;;;;;1.30;1.20;;;2.10;99.90;;;;;;5096100;28;20640;-70
2022/01/05 11:09:31;;;;;;;1.10;1.10;;;2.20;99.90;;;;;;5096106;28;20215;-70
2022/01/05 11:11:59;;;;;;;2.65;1.30;;;2.20;99.90;;;;;;5096032;28;20202;-69
2022/01/05 11:14:31;;;;;;;1.40;1.30;;;2.20;99.90;;;;;;5095845;28;20246;-70
2022/01/05 11:17:00;;;;;;;2.40;1.52;;;2.10;99.90;;;;;;5095931;28;20310;-69
2022/01/05 11:19:29;;;;;;;2.30;1.30;;;2.00;99.90;;;;;;5095529;28;20642;-70
2022/01/05 11:21:59;;;;;;;3.40;1.60;;;1.90;99.90;;;;;;5095562;28;20200;-70
2022/01/05 11:24:27;;;;;;;2.15;1.17;;;1.90;99.90;;;;;;5095648;28;20180;-70
2022/01/05 11:26:54;;;;;;;2.05;1.58;;;1.90;99.90;;;;;;5095131;28;20314;-70
2022/01/05 11:29:22;;;;;;;1.17;1.10;;;1.90;99.90;;;;;;5095624;28;20285;-70
2022/01/05 11:31:51;;;;;;;2.47;1.20;;;1.90;99.90;;;;;;5095579;28;20195;-70
2022/01/05 11:34:19;;;;;;;1.17;1.17;;;1.90;99.90;;;;;;5095609;28;20226;-68
2022/01/05 11:36:46;;;;;;;1.90;1.80;;;1.80;99.90;;;;;;5095418;28;20307;-70
2022/01/05 11:39:13;;;;;;;2.13;1.20;;;1.70;99.90;;;;;;5095028;28;20733;-69
2022/01/05 11:41:44;;;;;;;1.30;1.17;;;1.70;99.90;;;;;;5095080;28;20290;-69
2022/01/05 11:44:11;;;;;;;1.75;1.10;;;1.70;99.90;;;;;;5095227;28;20282;-69
2022/01/05 11:46:42;;;;;;;1.90;1.20;;;1.70;99.90;;;;;;5094689;28;20326;-70
2022/01/05 11:49:13;;;;;;;1.30;1.23;;;1.70;99.90;;;;;;5095250;28;20188;-70
2022/01/05 11:51:55;;;;;;;2.35;1.20;;;1.60;99.90;;;;;;5095205;28;20187;-70
2022/01/05 11:54:25;;;;;;;1.75;1.00;;;1.60;99.90;;;;;;5094741;28;20600;-70
2022/01/05 11:56:53;;;;;;;1.02;1.00;;;1.60;99.90;;;;;;5094885;28;20652;-71
2022/01/05 11:59:23;;;;;;;1.85;1.45;;;1.60;99.90;;;;;;5094958;28;20294;-70
2022/01/05 12:01:58;;;;;;;1.58;1.48;;;1.60;99.90;;;;;;5095010;28;20190;-70
2022/01/05 12:04:27;;;;;;;1.30;1.20;;;1.60;99.90;;;;;;5095019;28;20221;-70
2022/01/05 12:07:03;;;;;;;1.00;1.00;;;1.60;99.90;;;;;;5094556;28;20773;-70
2022/01/05 12:09:32;;;;;;;0.90;0.90;;;1.50;99.90;;;;;;5094439;28;20224;-70
2022/01/05 12:12:03;;;;;;;1.30;1.30;;;1.50;99.90;;;;;;5094442;28;20725;-70
2022/01/05 12:14:46;;;;;;;1.95;1.25;;;1.40;99.90;;;;;;5094606;28;20187;-70
2022/01/05 12:17:14;;;;;;;3.42;1.30;;;1.50;99.90;;;;;;5094189;28;20226;-70
2022/01/05 12:20:06;;;;;;;3.80;1.33;;;1.60;99.90;;;;;;5094574;28;20286;-70
2022/01/05 12:22:33;;;;;;;3.10;1.10;;;1.70;99.90;;;;;;5094189;28;20631;-70
2022/01/05 12:25:17;;;;;;;2.00;1.05;;;1.80;99.90;;;;;;5094200;28;20275;-70
2022/01/05 12:28:08;;;;;;;1.17;1.17;;;2.00;99.90;;;;;;5094013;28;20227;-70
2022/01/05 12:30:40;;;;;;;1.25;1.15;;;2.10;99.90;;;;;;5094439;28;20218;-69
2022/01/05 12:33:16;;;;;;;1.40;1.30;;;2.20;99.90;;;;;;5094466;28;20188;-69
2022/01/05 12:35:50;;;;;;;1.00;0.90;;;2.20;99.90;;;;;;5094021;28;20203;-69
2022/01/05 12:38:35;;;;;;;1.23;1.13;;;2.20;99.90;;;;;;5094207;28;20229;-69
2022/01/05 12:41:27;;;;;;;1.10;1.02;;;2.20;99.90;;;;;;5094722;28;20187;-69
2022/01/05 12:43:55;;;;;;;1.25;0.95;;;2.30;99.90;;;;;;5096532;28;20211;-69
2022/01/05 12:46:44;;;;;;;2.17;1.38;;;2.30;99.90;;;;;;5095505;28;20582;-69
2022/01/05 12:49:13;;;;;;;1.10;0.98;;;2.40;99.90;;;;;;5087961;28;20604;-69
2022/01/05 12:51:48;;;;;;;0.80;0.80;;;2.50;99.90;;;;;;5094011;28;20286;-69
2022/01/05 12:54:20;;;;;;;3.22;0.90;;;2.50;99.90;;;;;;5094130;28;20180;-69
2022/01/05 12:56:53;;;;;;;2.70;1.15;;;2.40;99.90;;;;;;5093815;28;20310;-69
2022/01/05 12:59:23;;;;;;;1.83;0.90;;;2.40;99.90;;;;;;5093255;28;20194;-69
2022/01/05 13:01:53;;;;;;;1.00;1.00;;;2.30;99.90;;;;;;5094106;28;20294;-69
2022/01/05 13:04:24;;;;;;;3.33;1.35;;;2.30;99.90;;;;;;5094053;28;20285;-69
2022/01/05 13:06:55;;;;;;;1.35;0.98;;;2.20;99.90;;;;;;5093703;28;20736;-68
2022/01/05 13:09:27;;;;;;;1.70;1.08;;;2.10;99.90;;;;;;5094160;28;20183;-69
2022/01/05 13:11:59;;;;;;;1.20;1.10;;;2.10;99.90;;;;;;5094168;28;20606;-69
2022/01/05 13:14:30;;;;;;;1.58;1.10;;;2.00;99.90;;;;;;5093990;28;20232;-68
2022/01/05 13:17:00;;;;;;;1.10;1.00;;;1.80;99.90;;;;;;5093773;28;20234;-69
2022/01/05 13:19:30;;;;;;;2.35;1.17;;;1.80;99.90;;;;;;5094111;28;20290;-68
2022/01/05 13:22:00;;;;;;;1.50;1.25;;;1.80;99.90;;;;;;5093949;28;20279;-68
2022/01/05 13:24:43;;;;;;;1.00;0.90;;;1.70;99.90;;;;;;5094238;28;20215;-69
2022/01/05 13:27:11;;;;;;;0.90;0.90;;;1.70;99.90;;;;;;5094254;28;20262;-68
2022/01/05 13:29:38;;;;;;;0.90;0.90;;;1.70;99.90;;;;;;5094376;28;20286;-68
2022/01/05 13:32:07;;;;;;;1.33;1.10;;;1.70;99.90;;;;;;5093946;28;20298;-68
2022/01/05 13:34:36;;;;;;;2.15;1.15;;;1.70;99.90;;;;;;5093842;28;20286;-68
2022/01/05 13:37:05;;;;;;;1.52;0.93;;;1.60;99.90;;;;;;5093935;28;20689;-68
2022/01/05 13:39:38;;;;;;;1.15;1.10;;;1.50;99.90;;;;;;5093485;28;20689;-68
2022/01/05 13:42:05;;;;;;;2.05;1.20;;;1.40;99.90;;;;;;5093425;28;20272;-68
2022/01/05 13:44:32;;;;;;;1.20;1.10;;;1.30;99.90;;;;;;5093862;28;20278;-68
2022/01/05 13:47:00;;;;;;;1.38;1.08;;;1.30;99.90;;;;;;5093666;28;20301;-68
2022/01/05 13:49:26;;;;;;;1.50;1.38;;;1.20;99.90;;;;;;5093842;28;20286;-68
2022/01/05 13:52:19;;;;;;;1.42;1.30;;;1.20;99.90;;;;;;5093744;28;20266;-68
2022/01/05 13:54:45;;;;;;;2.03;1.20;;;1.10;99.90;;;;;;5073481;28;20286;-68
2022/01/05 13:57:29;;;;;;;1.52;1.20;;;1.10;99.90;;;;;;5093527;28;20231;-68
2022/01/05 14:00:00;;;;;;;1.35;1.25;;;1.00;99.90;;;;;;5093537;28;20290;-69
2022/01/05 14:02:28;;;;;;;2.67;1.30;;;1.10;99.90;;;;;;5093776;28;20213;-69
2022/01/05 14:04:58;;;;;;;2.58;1.33;;;1.00;99.90;;;;;;5093865;28;20270;-69
2022/01/05 14:07:29;;;;;;;1.15;1.15;;;1.10;99.90;;;;;;5093998;28;20565;-69
2022/01/05 14:10:10;;;;;;;1.13;1.13;;;1.10;99.90;;;;;;5095862;28;20274;-69
2022/01/05 14:12:42;;;;;;;1.08;0.95;;;1.20;99.90;;;;;;5097255;28;20262;-69
2022/01/05 14:15:11;;;;;;;1.95;1.00;;;1.20;99.90;;;;;;5097284;28;20186;-69
2022/01/05 14:17:38;;;;;;;0.80;0.80;;;1.30;99.90;;;;;;5097148;28;20301;-69
2022/01/05 14:20:20;;;;;;;1.65;0.85;;;1.30;99.90;;;;;;5097048;28;20294;-68
2022/01/05 14:23:01;;;;;;;0.70;0.70;;;1.30;99.90;;;;;;5096802;28;20623;-68
2022/01/05 14:25:40;;;;;;;0.93;0.88;;;1.30;99.90;;;;;;5096921;28;20267;-68
2022/01/05 14:28:19;;;;;;;1.55;1.10;;;1.40;99.90;;;;;;5096429;28;20309;-68
2022/01/05 14:30:54;;;;;;;0.80;0.80;;;1.40;99.90;;;;;;5097702;28;20266;-68
2022/01/05 14:33:37;;;;;;;0.90;0.90;;;1.40;99.90;;;;;;5096876;28;20619;-69
2022/01/05 14:36:14;;;;;;;0.80;0.80;;;1.40;99.90;;;;;;5096419;28;20211;-69
2022/01/05 14:38:57;;;;;;;0.98;0.98;;;1.40;99.90;;;;;;5096599;28;20248;-68
2022/01/05 14:41:35;;;;;;;1.17;1.17;;;1.40;99.90;;;;;;5096798;28;20197;-68
2022/01/05 14:44:20;;;;;;;0.80;0.80;;;1.40;99.90;;;;;;5096839;28;20274;-68
2022/01/05 14:46:52;;;;;;;0.70;0.70;;;1.40;99.90;;;;;;5096229;28;20761;-68
2022/01/05 14:49:22;;;;;;;0.95;0.95;;;1.40;99.90;;;;;;5096766;28;20279;-68
2022/01/05 14:51:51;;;;;;;0.70;0.70;;;1.40;99.90;;;;;;5096869;28;20305;-69
2022/01/05 14:54:24;;;;;;;0.95;0.95;;;1.40;99.90;;;;;;5096946;28;20211;-68
2022/01/05 14:56:51;;;;;;;0.85;0.85;;;1.40;99.90;;;;;;5096486;28;20300;-68
2022/01/05 14:59:18;;;;;;;0.93;0.93;;;1.30;99.90;;;;;;5096213;28;20568;-68
2022/01/05 15:01:45;;;;;;;0.80;0.80;;;1.30;99.90;;;;;;5096461;28;20294;-68
2022/01/05 15:04:12;;;;;;;0.98;0.98;;;1.30;99.90;;;;;;5096634;28;20294;-68
2022/01/05 15:06:39;;;;;;;0.70;0.70;;;1.20;99.90;;;;;;5096716;28;20221;-68
2022/01/05 15:09:09;;;;;;;0.80;0.80;;;1.20;99.90;;;;;;5096601;28;20196;-69
2022/01/05 15:11:38;;;;;;;0.80;0.80;;;1.20;99.90;;;;;;5096554;28;20278;-68
2022/01/05 15:14:05;;;;;;;0.80;0.80;;;1.20;99.90;;;;;;5096669;28;20270;-68
2022/01/05 15:16:32;;;;;;;1.00;1.00;;;1.20;99.90;;;;;;5096838;28;20251;-68
2022/01/05 15:18:59;;;;;;;0.80;0.80;;;1.10;99.90;;;;;;5096003;28;20282;-68
2022/01/05 15:21:26;;;;;;;0.63;0.63;;;1.10;99.90;;;;;;5095006;28;20234;-68
2022/01/05 15:23:53;;;;;;;0.80;0.80;;;1.10;99.90;;;;;;5096008;28;20227;-69
2022/01/05 15:26:21;;;;;;;0.80;0.80;;;1.00;99.90;;;;;;5095902;28;20199;-69
2022/01/05 15:28:49;;;;;;;0.80;0.80;;;0.90;99.90;;;;;;5095662;28;20206;-69
2022/01/05 15:31:16;;;;;;;0.80;0.80;;;0.90;99.90;;;;;;5096273;28;20290;-69
2022/01/05 15:33:43;;;;;;;0.82;0.82;;;0.80;99.90;;;;;;5095592;28;20635;-69
2022/01/05 15:36:10;;;;;;;0.85;0.85;;;0.80;99.90;;;;;;5095872;28;20246;-69
2022/01/05 15:38:37;;;;;;;0.90;0.90;;;0.80;99.90;;;;;;5095559;28;20306;-69
2022/01/05 15:41:04;;;;;;;0.93;0.93;;;0.70;99.90;;;;;;5095666;28;20306;-69
2022/01/05 15:43:31;;;;;;;1.95;1.05;;;0.70;99.90;;;;;;5095642;28;20305;-69
2022/01/05 15:45:59;;;;;;;0.80;0.80;;;0.70;99.90;;;;;;5095562;28;20242;-68
2022/01/05 15:48:26;;;;;;;1.15;1.10;;;0.60;99.90;;;;;;5095179;28;20769;-68
2022/01/05 15:50:54;;;;;;;1.10;1.00;;;0.60;99.90;;;;;;5094959;28;20732;-68
2022/01/05 15:53:21;;;;;;;1.45;1.35;;;0.50;99.90;;;;;;5095736;28;20666;-68
2022/01/05 15:55:53;;;;;;;3.30;1.33;;;0.50;99.90;;;;;;5094996;28;20286;-68
2022/01/05 16:01:27;;;;;;;1.10;1.10;;;0.40;99.90;;;;;;5077606;28;20183;-68
2022/01/05 16:03:57;;;;;;;0.95;0.95;;;0.40;99.90;;;;;;5094968;28;20635;-67
2022/01/05 16:06:24;;;;;;;1.00;1.00;;;0.40;99.90;;;;;;5094904;28;20199;-68
2022/01/05 16:08:53;;;;;;;1.35;1.25;;;0.30;99.90;;;;;;5095066;28;20274;-67
2022/01/05 16:11:20;;;;;;;3.28;1.33;;;0.30;99.90;;;;;;5095119;28;20226;-68
2022/01/05 16:13:47;;;;;;;1.60;1.15;;;0.30;99.90;;;;;;5096751;28;20278;-69
2022/01/05 16:16:16;;;;;;;3.42;1.48;;;0.30;99.90;;;;;;5096374;28;20633;-69
2022/01/05 16:18:43;;;;;;;1.60;1.20;;;0.20;99.90;;;;;;5096408;28;20285;-74
2022/01/05 16:21:14;;;;;;;2.22;1.25;;;0.20;99.90;;;;;;5094850;28;20244;-75
2022/01/05 16:23:42;;;;;;;1.13;1.13;;;0.20;99.90;;;;;;5094931;28;20179;-75
2022/01/05 16:26:10;;;;;;;1.30;1.27;;;0.10;99.90;;;;;;5094949;28;20210;-72
2022/01/05 16:28:37;;;;;;;1.27;1.00;;;0.10;99.90;;;;;;5094598;28;20740;-73
2022/01/05 16:31:04;;;;;;;0.80;0.80;;;0.00;99.90;;;;;;5094588;28;20286;-72
2022/01/05 16:33:35;;;;;;;1.13;1.13;;;0.00;99.90;;;;;;5094526;28;20246;-72
2022/01/05 16:36:03;;;;;;;0.98;0.90;;;0.00;99.90;;;;;;5094229;28;20519;-74
2022/01/05 16:38:31;;;;;;;1.13;1.13;;;-0.10;99.90;;;;;;5094146;28;20737;-74
2022/01/05 16:40:58;;;;;;;1.42;1.02;;;-0.10;99.90;;;;;;5094986;28;20266;-74
2022/01/05 16:43:25;;;;;;;1.33;1.23;;;-0.20;99.90;;;;;;5094401;28;20285;-75
2022/01/05 16:45:52;;;;;;;0.80;0.80;;;-0.20;99.90;;;;;;5094565;28;20365;-75
2022/01/05 16:48:19;;;;;;;0.85;0.85;;;-0.30;99.90;;;;;;5094437;28;20314;-74
2022/01/05 16:50:47;;;;;;;1.15;1.15;;;-0.30;99.90;;;;;;5094357;28;20286;-73
2022/01/05 16:53:14;;;;;;;1.00;0.93;;;-0.30;99.90;;;;;;5094337;28;20629;-70
2022/01/05 16:55:43;;;;;;;1.30;1.30;;;-0.40;99.90;;;;;;5093946;28;20289;-68
2022/01/05 17:00:54;;;;;;;0.90;0.90;;;-0.50;99.90;;;;;;5094138;28;20186;-68
2022/01/05 17:03:20;;;;;;;0.90;0.90;;;-0.50;99.90;;;;;;5093986;28;20199;-68
2022/01/05 17:05:49;;;;;;;0.80;0.80;;;-0.50;99.90;;;;;;5093808;28;20203;-68
2022/01/05 17:08:18;;;;;;;0.98;0.98;;;-0.60;99.90;;;;;;5093807;28;20298;-69
2022/01/05 17:10:46;;;;;;;0.60;0.60;;;-0.60;99.90;;;;;;5093554;28;20203;-69
2022/01/05 17:13:16;;;;;;;1.05;1.05;;;-0.60;99.90;;;;;;5093423;28;20270;-69
2022/01/05 17:15:43;;;;;;;0.73;0.73;;;-0.70;99.90;;;;;;5093721;28;20209;-69
2022/01/05 17:18:10;;;;;;;0.85;0.80;;;-0.70;99.90;;;;;;5093317;28;20219;-69
2022/01/05 17:20:37;;;;;;;1.48;0.80;;;-0.60;99.90;;;;;;5093615;28;20285;-69
2022/01/05 17:23:06;;;;;;;0.80;0.80;;;-0.60;99.90;;;;;;5093640;28;20234;-69
2022/01/05 17:25:33;;;;;;;0.80;0.80;;;-0.60;99.90;;;;;;5093748;28;20282;-69
2022/01/05 17:28:00;;;;;;;0.73;0.73;;;-0.50;99.90;;;;;;5093083;28;20313;-69
2022/01/05 17:30:27;;;;;;;0.80;0.80;;;-0.40;99.90;;;;;;5093216;28;20286;-69
2022/01/05 17:32:55;;;;;;;0.80;0.80;;;-0.40;99.90;;;;;;5094543;28;20291;-69
2022/01/05 17:35:22;;;;;;;0.70;0.70;;;-0.30;99.90;;;;;;5094000;28;20693;-69
2022/01/05 17:37:49;;;;;;;0.80;0.80;;;-0.30;99.90;;;;;;5094615;28;20257;-70
2022/01/05 17:40:18;;;;;;;0.70;0.70;;;-0.20;99.90;;;;;;5094437;28;20203;-69
2022/01/05 17:42:48;;;;;;;0.90;0.90;;;-0.20;99.90;;;;;;5097478;28;20303;-69
2022/01/05 17:45:15;;;;;;;0.90;0.90;;;-0.20;99.90;;;;;;5102238;28;20253;-67
2022/01/05 17:47:42;;;;;;;0.85;0.85;;;-0.10;99.90;;;;;;5102262;28;20211;-67
2022/01/05 17:50:10;;;;;;;0.80;0.80;;;-0.10;99.90;;;;;;5101595;28;20198;-68
2022/01/05 17:52:38;;;;;;;1.00;1.00;;;-0.10;99.90;;;;;;5100690;28;20689;-67
2022/01/05 17:55:06;;;;;;;0.80;0.80;;;-0.10;99.90;;;;;;5101407;28;20195;-67
2022/01/05 17:57:35;;;;;;;0.80;0.80;;;0.00;99.90;;;;;;5100886;28;20310;-68
2022/01/05 18:00:05;;;;;;;0.77;0.77;;;0.00;99.90;;;;;;5101036;28;20268;-67
2022/01/05 18:02:32;;;;;;;0.70;0.70;;;0.00;99.90;;;;;;5101036;28;20184;-67
2022/01/05 18:05:00;;;;;;;0.70;0.70;;;0.00;99.90;;;;;;5100315;28;20573;-67
2022/01/05 18:07:27;;;;;;;0.65;0.65;;;0.00;99.90;;;;;;5100934;28;20219;-67
2022/01/05 18:09:54;;;;;;;0.60;0.60;;;0.00;99.90;;;;;;5100793;28;20235;-68
2022/01/05 18:12:21;;;;;;;0.80;0.80;;;0.00;99.90;;;;;;5100510;28;20260;-68
2022/01/05 18:14:50;;;;;;;0.90;0.90;;;0.00;99.90;;;;;;5100076;28;20286;-68
2022/01/05 18:17:17;;;;;;;0.80;0.80;;;0.10;99.90;;;;;;5101026;28;20244;-68
2022/01/05 18:19:45;;;;;;;0.80;0.80;;;0.20;99.90;;;;;;5100333;28;20195;-68
2022/01/05 18:22:12;;;;;;;0.90;0.90;;;0.20;99.90;;;;;;5101303;28;20203;-68
2022/01/05 18:24:40;;;;;;;0.73;0.70;;;0.10;99.90;;;;;;5100773;28;20211;-68
2022/01/05 18:27:07;;;;;;;1.52;1.10;;;0.20;99.90;;;;;;5100396;28;20292;-68
2022/01/05 18:29:34;;;;;;;0.93;0.93;;;0.10;99.90;;;;;;5100225;28;20715;-68
2022/01/05 18:32:03;;;;;;;0.80;0.80;;;0.20;99.90;;;;;;5100814;28;20666;-68
2022/01/05 18:34:30;;;;;;;0.90;0.90;;;0.10;99.90;;;;;;5101256;28;20199;-67
2022/01/05 18:36:59;;;;;;;0.80;0.80;;;0.20;99.90;;;;;;5102406;28;20223;-67
2022/01/05 18:39:27;;;;;;;0.90;0.90;;;0.20;99.90;;;;;;5099878;28;20689;-67
2022/01/05 18:41:54;;;;;;;0.90;0.90;;;0.20;99.90;;;;;;5101127;28;20503;-69
2022/01/05 18:44:22;;;;;;;0.80;0.80;;;0.20;99.90;;;;;;5100406;28;20196;-68
2022/01/05 18:46:51;;;;;;;0.80;0.80;;;0.20;99.90;;;;;;5100467;28;20219;-67
2022/01/05 18:49:19;;;;;;;0.95;0.90;;;0.30;99.90;;;;;;5100372;28;20214;-68
2022/01/05 18:51:46;;;;;;;0.80;0.80;;;0.30;99.90;;;;;;5100361;28;20221;-68
2022/01/05 18:54:14;;;;;;;0.90;0.90;;;0.30;99.90;;;;;;5100433;28;20203;-69
2022/01/05 18:56:41;;;;;;;0.90;0.90;;;0.20;99.90;;;;;;5098921;28;20774;-67
2022/01/05 18:59:09;;;;;;;0.80;0.80;;;0.30;99.90;;;;;;5099370;28;20204;-67
2022/01/05 19:01:36;;;;;;;0.93;0.90;;;0.30;99.90;;;;;;5100324;28;20253;-67
2022/01/05 19:04:03;;;;;;;0.80;0.80;;;0.30;99.90;;;;;;5096103;28;20286;-68
2022/01/05 19:06:32;;;;;;;0.93;0.93;;;0.30;99.90;;;;;;5095997;28;20304;-68
2022/01/05 19:08:59;;;;;;;0.85;0.85;;;0.30;99.90;;;;;;5096091;28;20223;-68
2022/01/05 19:11:26;;;;;;;1.00;1.00;;;0.30;99.90;;;;;;5095992;28;20282;-68
2022/01/05 19:13:53;;;;;;;0.80;0.80;;;0.30;99.90;;;;;;5095876;28;20223;-68
2022/01/05 19:16:21;;;;;;;1.02;1.02;;;0.30;99.90;;;;;;5095381;28;20203;-67
2022/01/05 19:18:48;;;;;;;1.00;1.00;;;0.30;99.90;;;;;;5095312;28;20229;-67
2022/01/05 19:21:16;;;;;;;1.30;1.20;;;0.30;99.90;;;;;;5095418;28;20294;-67
2022/01/05 19:23:46;;;;;;;1.10;1.10;;;0.30;99.90;;;;;;5095254;28;20280;-68